Time;durP1;ratioP1;P1;durP2;ratioP2;P2;SDS_P1;SDS_P2;PMS_P1;PMS_P2;Temp;Humidity;BMP_temperature;BMP_pressure;BME280_temperature;BME280_humidity;BME280_pressure;Samples;Min_cycle;Max_cycle;Signal;HPM_P1;HPM_P2
2022/10/15 00:00:50;;;;;;;1999.90;999.90;;;;;;;;;;5072710;28;20898;-75
2022/10/15 00:03:18;;;;;;;1999.90;999.90;;;;;;;;;;5050622;28;20490;-76
2022/10/15 00:05:46;;;;;;;1999.90;999.90;;;;;;;;;;5058464;28;20461;-76
2022/10/15 00:08:14;;;;;;;1999.90;999.90;;;;;;;;;;5076707;28;20478;-76
2022/10/15 00:10:42;;;;;;;1999.90;999.90;;;;;;;;;;5073018;28;20406;-77
2022/10/15 00:13:10;;;;;;;1999.90;999.90;;;;;;;;;;5057638;28;20405;-76
2022/10/15 00:15:37;;;;;;;1999.90;999.90;;;;;;;;;;5056173;28;20412;-76
2022/10/15 00:18:07;;;;;;;1999.90;999.90;;;;;;;;;;5044303;28;20406;-77
2022/10/15 00:20:34;;;;;;;1999.90;999.90;;;;;;;;;;5071934;28;20409;-75
2022/10/15 00:23:04;;;;;;;1999.90;999.90;;;;;;;;;;5073440;28;20402;-74
2022/10/15 00:25:32;;;;;;;1999.90;999.90;;;;;;;;;;5056079;28;20440;-76
2022/10/15 00:27:59;;;;;;;1999.90;999.90;;;;;;;;;;5057136;28;20432;-74
2022/10/15 00:30:27;;;;;;;1999.90;999.90;;;;;;;;;;5025233;28;20403;-75
2022/10/15 00:32:55;;;;;;;1999.90;999.90;;;;;;;;;;5045406;28;20996;-75
2022/10/15 00:35:25;;;;;;;1999.90;999.90;;;;;;;;;;5057532;28;20403;-75
2022/10/15 00:37:52;;;;;;;1999.90;999.90;;;;;;;;;;5045461;28;20418;-76
2022/10/15 00:40:21;;;;;;;1999.90;999.90;;;;;;;;;;5071221;28;20404;-74
2022/10/15 00:42:49;;;;;;;1999.90;999.90;;;;;;;;;;5060306;28;20911;-76
2022/10/15 00:45:17;;;;;;;1999.90;999.90;;;;;;;;;;5074734;28;20391;-76
2022/10/15 00:47:47;;;;;;;1999.90;999.90;;;;;;;;;;5075293;28;20396;-76
2022/10/15 00:50:18;;;;;;;1999.90;999.90;;;;;;;;;;5077663;28;20391;-76
2022/10/15 00:52:54;;;;;;;1999.90;999.90;;;;;;;;;;5081927;28;20484;-76
2022/10/15 00:55:27;;;;;;;1999.90;999.90;;;;;;;;;;5054711;28;20393;-76
2022/10/15 00:57:55;;;;;;;1999.90;999.90;;;;;;;;;;5054069;28;20397;-76
2022/10/15 01:00:23;;;;;;;1999.90;999.90;;;;;;;;;;5070805;28;20431;-76
2022/10/15 01:02:51;;;;;;;1999.90;999.90;;;;;;;;;;5087490;28;20403;-76
2022/10/15 01:05:19;;;;;;;1999.90;999.90;;;;;;;;;;5072128;28;21581;-76
2022/10/15 01:07:48;;;;;;;1999.90;999.90;;;;;;;;;;5084890;28;20387;-76
2022/10/15 01:10:16;;;;;;;1999.90;999.90;;;;;;;;;;5072236;28;20394;-76
2022/10/15 01:13:02;;;;;;;1999.90;999.90;;;;;;;;;;5067245;28;20412;-77
2022/10/15 01:15:33;;;;;;;1999.90;999.90;;;;;;;;;;5068998;28;20444;-74
2022/10/15 01:18:04;;;;;;;1999.90;999.90;;;;;;;;;;5070371;28;21338;-75
2022/10/15 01:20:47;;;;;;;1999.90;999.90;;;;;;;;;;5049486;28;20412;-76
2022/10/15 01:23:27;;;;;;;1999.90;999.90;;;;;;;;;;5091697;28;20408;-76
2022/10/15 01:26:06;;;;;;;1999.90;999.90;;;;;;;;;;5073365;28;20392;-76
2022/10/15 01:28:42;;;;;;;1999.90;999.90;;;;;;;;;;5047887;28;20416;-75
2022/10/15 01:31:15;;;;;;;1999.90;999.90;;;;;;;;;;5088883;28;20401;-74
2022/10/15 01:33:45;;;;;;;1999.90;999.90;;;;;;;;;;5094057;28;20494;-74
2022/10/15 01:36:16;;;;;;;1999.90;999.90;;;;;;;;;;5066363;28;20400;-75
2022/10/15 01:38:47;;;;;;;1999.90;999.90;;;;;;;;;;5064377;28;21198;-74
2022/10/15 01:41:18;;;;;;;1999.90;999.90;;;;;;;;;;5052807;28;20380;-74
2022/10/15 01:43:48;;;;;;;1999.90;999.90;;;;;;;;;;5071575;28;20407;-75
2022/10/15 01:46:48;;;;;;;1999.90;999.90;;;;;;;;;;5072583;28;20401;-74
2022/10/15 01:49:25;;;;;;;1999.90;999.90;;;;;;;;;;5051728;28;20427;-77
2022/10/15 01:51:53;;;;;;;1999.90;999.90;;;;;;;;;;5081061;28;20408;-75
2022/10/15 01:54:23;;;;;;;1999.90;999.90;;;;;;;;;;5054837;28;20485;-76
2022/10/15 01:56:52;;;;;;;1999.90;999.90;;;;;;;;;;5075973;28;20399;-75
2022/10/15 01:59:22;;;;;;;1999.90;999.90;;;;;;;;;;5069793;28;20510;-76
2022/10/15 02:01:51;;;;;;;1999.90;999.90;;;;;;;;;;5051956;28;20407;-76
2022/10/15 02:04:28;;;;;;;1999.90;999.90;;;;;;;;;;5072692;28;20543;-77
2022/10/15 02:06:59;;;;;;;1999.90;999.90;;;;;;;;;;5088520;28;20431;-77
2022/10/15 02:09:32;;;;;;;1999.90;999.90;;;;;;;;;;5049685;28;20381;-75
2022/10/15 02:12:06;;;;;;;1999.90;999.90;;;;;;;;;;5073125;28;20408;-76
2022/10/15 02:14:36;;;;;;;1999.90;999.90;;;;;;;;;;5062082;28;20407;-75
2022/10/15 02:17:08;;;;;;;1999.90;999.90;;;;;;;;;;5072910;28;20389;-75
2022/10/15 02:19:39;;;;;;;1999.90;999.90;;;;;;;;;;5091467;27;20871;-76
2022/10/15 02:22:09;;;;;;;1999.90;999.90;;;;;;;;;;5093553;28;20449;-76
2022/10/15 02:24:53;;;;;;;1999.90;999.90;;;;;;;;;;5069463;28;20502;-76
2022/10/15 02:27:32;;;;;;;1999.90;999.90;;;;;;;;;;5056536;28;20387;-76
2022/10/15 02:30:01;;;;;;;1999.90;999.90;;;;;;;;;;5074587;28;20542;-76
2022/10/15 02:32:31;;;;;;;1999.90;999.90;;;;;;;;;;5049439;28;20389;-76
2022/10/15 02:35:00;;;;;;;1999.90;999.90;;;;;;;;;;5072353;28;20408;-75
2022/10/15 02:37:29;;;;;;;1999.90;999.90;;;;;;;;;;5110613;28;20427;-75
2022/10/15 02:39:57;;;;;;;1999.90;999.90;;;;;;;;;;5097414;28;20370;-75
2022/10/15 02:42:24;;;;;;;1999.90;999.90;;;;;;;;;;5096956;28;20373;-74
2022/10/15 02:44:53;;;;;;;1999.90;999.90;;;;;;;;;;5054775;28;20439;-77
2022/10/15 02:47:21;;;;;;;1999.90;999.90;;;;;;;;;;5053501;28;20483;-77
2022/10/15 02:49:50;;;;;;;1999.90;999.90;;;;;;;;;;5055338;28;20405;-76
2022/10/15 02:52:18;;;;;;;1999.90;999.90;;;;;;;;;;5030676;28;20945;-75
2022/10/15 02:54:46;;;;;;;1999.90;999.90;;;;;;;;;;5044528;28;20432;-76
2022/10/15 02:57:13;;;;;;;1999.90;999.90;;;;;;;;;;5055556;28;20404;-74
2022/10/15 02:59:43;;;;;;;1999.90;999.90;;;;;;;;;;5031276;28;20393;-75
2022/10/15 03:02:11;;;;;;;1999.90;999.90;;;;;;;;;;5064598;28;20393;-75
2022/10/15 03:04:45;;;;;;;1999.90;999.90;;;;;;;;;;5055797;28;20891;-75
2022/10/15 03:07:15;;;;;;;1999.90;999.90;;;;;;;;;;5052876;28;20397;-76
2022/10/15 03:09:43;;;;;;;1999.90;999.90;;;;;;;;;;5042417;28;20393;-76
2022/10/15 03:12:12;;;;;;;1999.90;999.90;;;;;;;;;;5067709;28;20478;-76
2022/10/15 03:14:40;;;;;;;1999.90;999.90;;;;;;;;;;5050709;28;20400;-77
2022/10/15 03:17:08;;;;;;;1999.90;999.90;;;;;;;;;;5051186;28;20395;-75
2022/10/15 03:19:36;;;;;;;1999.90;999.90;;;;;;;;;;5031813;28;20389;-74
2022/10/15 03:22:04;;;;;;;1999.90;999.90;;;;;;;;;;5056981;28;22526;-76
2022/10/15 03:24:43;;;;;;;1999.90;999.90;;;;;;;;;;5035861;28;20559;-76
2022/10/15 03:27:12;;;;;;;1999.90;999.90;;;;;;;;;;5068621;28;20397;-76
2022/10/15 03:29:40;;;;;;;1999.90;999.90;;;;;;;;;;5053732;28;20390;-76
2022/10/15 03:32:08;;;;;;;1999.90;999.90;;;;;;;;;;5036856;28;20399;-76
2022/10/15 03:34:36;;;;;;;1999.90;999.90;;;;;;;;;;5053189;28;20507;-76
2022/10/15 03:37:04;;;;;;;1999.90;999.90;;;;;;;;;;5042384;28;20389;-75
2022/10/15 03:39:32;;;;;;;1999.90;999.90;;;;;;;;;;5050655;28;20499;-77
2022/10/15 03:42:04;;;;;;;1999.90;999.90;;;;;;;;;;5049712;28;20895;-77
2022/10/15 03:44:39;;;;;;;1999.90;999.90;;;;;;;;;;5031379;28;20401;-76
2022/10/15 03:47:10;;;;;;;1999.90;999.90;;;;;;;;;;5041503;28;20397;-76
2022/10/15 03:49:49;;;;;;;1999.90;999.90;;;;;;;;;;5037987;28;20436;-75
2022/10/15 03:52:17;;;;;;;1999.90;999.90;;;;;;;;;;5052634;28;20951;-75
2022/10/15 03:54:46;;;;;;;1999.90;999.90;;;;;;;;;;5064038;28;20428;-76
2022/10/15 03:57:19;;;;;;;1999.90;999.90;;;;;;;;;;5034299;28;20475;-76
2022/10/15 03:59:59;;;;;;;1999.90;999.90;;;;;;;;;;5035001;28;20397;-75
2022/10/15 04:02:30;;;;;;;1999.90;999.90;;;;;;;;;;5048761;28;20414;-74
2022/10/15 04:04:58;;;;;;;1999.90;999.90;;;;;;;;;;5038990;28;20470;-75
2022/10/15 04:07:26;;;;;;;1999.90;999.90;;;;;;;;;;5062592;28;20611;-75
2022/10/15 04:09:54;;;;;;;1999.90;999.90;;;;;;;;;;5063549;28;20409;-76
2022/10/15 04:12:28;;;;;;;1999.90;999.90;;;;;;;;;;5047810;28;20389;-75
2022/10/15 04:14:56;;;;;;;1999.90;999.90;;;;;;;;;;5060894;28;20414;-75
2022/10/15 04:17:24;;;;;;;1999.90;999.90;;;;;;;;;;5064833;28;20820;-76
2022/10/15 04:19:52;;;;;;;1999.90;999.90;;;;;;;;;;5065312;28;20476;-75
2022/10/15 04:22:21;;;;;;;1999.90;999.90;;;;;;;;;;5050130;28;20381;-75
2022/10/15 04:24:54;;;;;;;1999.90;999.90;;;;;;;;;;5065789;28;20405;-76
2022/10/15 04:27:28;;;;;;;1999.90;999.90;;;;;;;;;;5050897;28;20400;-74
2022/10/15 04:30:08;;;;;;;1999.90;999.90;;;;;;;;;;5048797;28;20437;-76
2022/10/15 04:32:39;;;;;;;1999.90;999.90;;;;;;;;;;5044947;28;20397;-75
2022/10/15 04:35:08;;;;;;;1999.90;999.90;;;;;;;;;;5042026;28;20459;-75
2022/10/15 04:37:51;;;;;;;1999.90;999.90;;;;;;;;;;5065539;28;20392;-74
2022/10/15 04:40:19;;;;;;;1999.90;999.90;;;;;;;;;;5040540;28;21223;-76
2022/10/15 04:42:49;;;;;;;1999.90;999.90;;;;;;;;;;5034454;28;20475;-75
2022/10/15 04:45:17;;;;;;;1999.90;999.90;;;;;;;;;;5063498;28;21298;-75
2022/10/15 04:47:45;;;;;;;1999.90;999.90;;;;;;;;;;5062118;28;20432;-76
2022/10/15 04:50:15;;;;;;;1999.90;999.90;;;;;;;;;;5062677;28;20381;-76
2022/10/15 04:53:22;;;;;;;1999.90;999.90;;;;;;;;;;5043894;28;20484;-77
2022/10/15 04:55:52;;;;;;;1999.90;999.90;;;;;;;;;;5064839;28;20440;-76
2022/10/15 04:58:21;;;;;;;1999.90;999.90;;;;;;;;;;5062914;28;20451;-75
2022/10/15 05:00:49;;;;;;;1999.90;999.90;;;;;;;;;;5061500;28;20917;-75
2022/10/15 05:03:32;;;;;;;1999.90;999.90;;;;;;;;;;5051929;28;20408;-76
2022/10/15 05:06:06;;;;;;;1999.90;999.90;;;;;;;;;;5066819;28;20401;-76
2022/10/15 05:08:36;;;;;;;1999.90;999.90;;;;;;;;;;5045779;28;20408;-76
2022/10/15 05:11:14;;;;;;;1999.90;999.90;;;;;;;;;;5064299;28;20410;-76
2022/10/15 05:13:43;;;;;;;1999.90;999.90;;;;;;;;;;5092527;28;20413;-74
2022/10/15 05:16:13;;;;;;;1999.90;999.90;;;;;;;;;;5045364;28;20515;-75
2022/10/15 05:18:42;;;;;;;1999.90;999.90;;;;;;;;;;5066482;28;20430;-78
2022/10/15 05:21:11;;;;;;;1999.90;999.90;;;;;;;;;;5052585;28;20405;-78
2022/10/15 05:23:40;;;;;;;1999.90;999.90;;;;;;;;;;5050664;28;20451;-79
2022/10/15 05:26:20;;;;;;;1999.90;999.90;;;;;;;;;;5064700;28;20769;-78
2022/10/15 05:28:49;;;;;;;1999.90;999.90;;;;;;;;;;5048972;28;20396;-80
2022/10/15 05:31:26;;;;;;;1999.90;999.90;;;;;;;;;;5079182;28;20393;-78
2022/10/15 05:34:06;;;;;;;1999.90;999.90;;;;;;;;;;5065694;28;20416;-78
2022/10/15 05:36:40;;;;;;;1999.90;999.90;;;;;;;;;;5068368;28;20503;-80
2022/10/15 05:39:09;;;;;;;1999.90;999.90;;;;;;;;;;5053657;28;20523;-79
2022/10/15 05:41:41;;;;;;;1999.90;999.90;;;;;;;;;;5065597;28;20412;-78
2022/10/15 05:44:10;;;;;;;1999.90;999.90;;;;;;;;;;5072005;28;20366;-79
2022/10/15 05:46:38;;;;;;;1999.90;999.90;;;;;;;;;;5084046;28;20361;-77
2022/10/15 05:49:06;;;;;;;1999.90;999.90;;;;;;;;;;5083855;28;20362;-78
2022/10/15 05:51:46;;;;;;;1999.90;999.90;;;;;;;;;;5076102;28;20369;-77
2022/10/15 05:54:23;;;;;;;1999.90;999.90;;;;;;;;;;5066584;28;20379;-76
2022/10/15 05:56:51;;;;;;;1999.90;999.90;;;;;;;;;;5075762;28;20418;-80
2022/10/15 05:59:20;;;;;;;1999.90;999.90;;;;;;;;;;5068915;28;20383;-79
2022/10/15 06:01:48;;;;;;;1999.90;999.90;;;;;;;;;;5075589;28;20401;-78
2022/10/15 06:04:16;;;;;;;1999.90;999.90;;;;;;;;;;5050276;28;20371;-80
2022/10/15 06:06:44;;;;;;;1999.90;999.90;;;;;;;;;;5068732;28;21307;-78
2022/10/15 06:09:12;;;;;;;1999.90;999.90;;;;;;;;;;5060864;28;20364;-80
2022/10/15 06:11:39;;;;;;;1999.90;999.90;;;;;;;;;;5071632;28;20526;-79
2022/10/15 06:14:09;;;;;;;1999.90;999.90;;;;;;;;;;5077369;28;20901;-77
2022/10/15 06:16:39;;;;;;;1999.90;999.90;;;;;;;;;;5097341;28;20579;-78
2022/10/15 06:19:06;;;;;;;1999.90;999.90;;;;;;;;;;5074136;28;20369;-79
2022/10/15 06:21:34;;;;;;;1999.90;999.90;;;;;;;;;;5076014;28;21284;-78
2022/10/15 06:24:02;;;;;;;1999.90;999.90;;;;;;;;;;5062222;28;21513;-80
2022/10/15 06:26:36;;;;;;;1999.90;999.90;;;;;;;;;;5081072;28;20930;-80
2022/10/15 06:29:03;;;;;;;1999.90;999.90;;;;;;;;;;5083352;28;20451;-80
2022/10/15 06:31:31;;;;;;;1999.90;999.90;;;;;;;;;;5071476;28;20380;-78
2022/10/15 06:34:01;;;;;;;1999.90;999.90;;;;;;;;;;5092283;28;20401;-78
2022/10/15 06:36:29;;;;;;;1999.90;999.90;;;;;;;;;;5073952;28;20445;-78
2022/10/15 06:38:57;;;;;;;1999.90;999.90;;;;;;;;;;5091220;28;20409;-80
2022/10/15 06:41:25;;;;;;;1999.90;999.90;;;;;;;;;;5072640;28;20411;-79
2022/10/15 06:43:53;;;;;;;1999.90;999.90;;;;;;;;;;5050927;28;20413;-78
2022/10/15 06:46:21;;;;;;;1999.90;999.90;;;;;;;;;;5076317;28;21135;-77
2022/10/15 06:48:50;;;;;;;1999.90;999.90;;;;;;;;;;5089219;28;20397;-78
2022/10/15 06:51:19;;;;;;;1999.90;999.90;;;;;;;;;;5078188;28;20388;-78
2022/10/15 06:53:50;;;;;;;1999.90;999.90;;;;;;;;;;5086435;28;20360;-77
2022/10/15 06:56:18;;;;;;;1999.90;999.90;;;;;;;;;;5092884;28;20413;-79
2022/10/15 06:58:46;;;;;;;1999.90;999.90;;;;;;;;;;5072471;28;20399;-78
2022/10/15 07:01:13;;;;;;;1999.90;999.90;;;;;;;;;;5065820;28;20554;-78
2022/10/15 07:03:41;;;;;;;1999.90;999.90;;;;;;;;;;5069313;28;20361;-78
2022/10/15 07:06:09;;;;;;;1999.90;999.90;;;;;;;;;;5085948;28;20413;-77
2022/10/15 07:08:38;;;;;;;1999.90;999.90;;;;;;;;;;5075841;28;20407;-79
2022/10/15 07:11:08;;;;;;;1999.90;999.90;;;;;;;;;;5061982;28;20407;-78
2022/10/15 07:13:36;;;;;;;1999.90;999.90;;;;;;;;;;5085401;28;20393;-80
2022/10/15 07:16:04;;;;;;;1999.90;999.90;;;;;;;;;;5080645;28;20511;-77
2022/10/15 07:18:33;;;;;;;1999.90;999.90;;;;;;;;;;5085844;27;20428;-79
2022/10/15 07:21:01;;;;;;;1999.90;999.90;;;;;;;;;;5076069;28;20428;-77
2022/10/15 07:23:29;;;;;;;1999.90;999.90;;;;;;;;;;5040049;28;20385;-77
2022/10/15 07:25:59;;;;;;;1999.90;999.90;;;;;;;;;;5050378;28;20510;-77
2022/10/15 07:28:27;;;;;;;1999.90;999.90;;;;;;;;;;5057385;28;20587;-77
2022/10/15 07:30:55;;;;;;;1999.90;999.90;;;;;;;;;;5056060;28;20489;-77
2022/10/15 07:33:22;;;;;;;1999.90;999.90;;;;;;;;;;5082515;28;20399;-77
2022/10/15 07:35:58;;;;;;;1999.90;999.90;;;;;;;;;;5058643;28;20403;-77
2022/10/15 07:38:26;;;;;;;1999.90;999.90;;;;;;;;;;5078130;28;20503;-77
2022/10/15 07:40:58;;;;;;;1999.90;999.90;;;;;;;;;;5041299;28;20408;-76
2022/10/15 07:43:27;;;;;;;1999.90;999.90;;;;;;;;;;5060474;28;21446;-80
2022/10/15 07:45:55;;;;;;;1999.90;999.90;;;;;;;;;;5040661;28;20504;-76
2022/10/15 07:48:23;;;;;;;1999.90;999.90;;;;;;;;;;5055454;28;20459;-75
2022/10/15 07:50:54;;;;;;;1999.90;999.90;;;;;;;;;;5072838;28;20677;-78
2022/10/15 07:53:22;;;;;;;1999.90;999.90;;;;;;;;;;5055460;28;20411;-78
2022/10/15 07:55:57;;;;;;;1999.90;999.90;;;;;;;;;;5084096;28;20626;-76
2022/10/15 07:58:29;;;;;;;1999.90;999.90;;;;;;;;;;5080649;28;21373;-77
2022/10/15 08:00:59;;;;;;;1999.90;999.90;;;;;;;;;;5059162;28;20492;-78
2022/10/15 08:03:27;;;;;;;1999.90;999.90;;;;;;;;;;5065365;28;20398;-80
2022/10/15 08:05:55;;;;;;;1999.90;999.90;;;;;;;;;;5064404;28;20534;-78
2022/10/15 08:08:24;;;;;;;1999.90;999.90;;;;;;;;;;5048916;28;22602;-77
2022/10/15 08:10:56;;;;;;;1999.90;999.90;;;;;;;;;;5065863;28;21304;-79
2022/10/15 08:13:24;;;;;;;1999.90;999.90;;;;;;;;;;5075722;28;20401;-78
2022/10/15 08:15:57;;;;;;;1999.90;999.90;;;;;;;;;;5049865;28;21146;-77
2022/10/15 08:18:27;;;;;;;1999.90;999.90;;;;;;;;;;5065689;28;20395;-79
2022/10/15 08:20:58;;;;;;;1999.90;999.90;;;;;;;;;;5037561;28;20508;-79
2022/10/15 08:23:26;;;;;;;1999.90;999.90;;;;;;;;;;5063770;28;20416;-78
2022/10/15 08:25:57;;;;;;;1999.90;999.90;;;;;;;;;;5028653;28;20405;-75
2022/10/15 08:28:25;;;;;;;1999.90;999.90;;;;;;;;;;5075558;28;20411;-80
2022/10/15 08:30:56;;;;;;;1999.90;999.90;;;;;;;;;;5079082;28;20834;-75
2022/10/15 08:33:29;;;;;;;1999.90;999.90;;;;;;;;;;5080973;28;20616;-78
2022/10/15 08:35:57;;;;;;;1999.90;999.90;;;;;;;;;;5077912;28;20885;-78
2022/10/15 08:38:25;;;;;;;1999.90;999.90;;;;;;;;;;5082529;28;20533;-77
2022/10/15 08:40:54;;;;;;;1999.90;999.90;;;;;;;;;;5058020;28;20486;-75
2022/10/15 08:43:24;;;;;;;1999.90;999.90;;;;;;;;;;5071437;28;20407;-74
2022/10/15 08:45:55;;;;;;;1999.90;999.90;;;;;;;;;;5052118;28;20879;-76
2022/10/15 08:48:27;;;;;;;1999.90;999.90;;;;;;;;;;5036472;28;20337;-75
2022/10/15 08:51:02;;;;;;;1999.90;999.90;;;;;;;;;;5047364;28;20542;-77
2022/10/15 08:53:32;;;;;;;1999.90;999.90;;;;;;;;;;5030964;28;20395;-74
2022/10/15 08:56:03;;;;;;;1999.90;999.90;;;;;;;;;;5025448;28;20418;-77
2022/10/15 08:58:38;;;;;;;1999.90;999.90;;;;;;;;;;5051195;28;20388;-78
2022/10/15 09:01:13;;;;;;;1999.90;999.90;;;;;;;;;;5052320;28;20779;-77
2022/10/15 09:03:44;;;;;;;1999.90;999.90;;;;;;;;;;5034550;28;20415;-78
2022/10/15 09:06:16;;;;;;;1999.90;999.90;;;;;;;;;;5023976;28;20421;-75
2022/10/15 09:08:48;;;;;;;1999.90;999.90;;;;;;;;;;5033925;28;20418;-76
2022/10/15 09:11:19;;;;;;;1999.90;999.90;;;;;;;;;;5049416;28;20404;-76
2022/10/15 09:13:48;;;;;;;1999.90;999.90;;;;;;;;;;5049612;28;20409;-77
2022/10/15 09:16:25;;;;;;;1999.90;999.90;;;;;;;;;;5041751;28;21298;-77
2022/10/15 09:18:53;;;;;;;1999.90;999.90;;;;;;;;;;5053998;28;20410;-76
2022/10/15 09:21:24;;;;;;;1999.90;999.90;;;;;;;;;;5056534;28;20397;-77
2022/10/15 09:23:52;;;;;;;1999.90;999.90;;;;;;;;;;5054507;28;21129;-76
2022/10/15 09:26:23;;;;;;;1999.90;999.90;;;;;;;;;;5039866;28;20402;-75
2022/10/15 09:28:56;;;;;;;1999.90;999.90;;;;;;;;;;5045005;28;20477;-76
2022/10/15 09:31:27;;;;;;;1999.90;999.90;;;;;;;;;;5049547;28;22630;-76
2022/10/15 09:33:57;;;;;;;1999.90;999.90;;;;;;;;;;5034929;28;20457;-76
2022/10/15 09:36:33;;;;;;;1999.90;999.90;;;;;;;;;;5048620;28;20419;-76
2022/10/15 09:39:04;;;;;;;1999.90;999.90;;;;;;;;;;5054076;28;20367;-76
2022/10/15 09:41:39;;;;;;;1999.90;999.90;;;;;;;;;;5040616;28;20395;-80
2022/10/15 09:44:11;;;;;;;1999.90;999.90;;;;;;;;;;5058974;28;20396;-80
2022/10/15 09:46:43;;;;;;;1999.90;999.90;;;;;;;;;;5056767;28;20406;-82
2022/10/15 09:49:17;;;;;;;1999.90;999.90;;;;;;;;;;5037753;28;20911;-82
2022/10/15 09:51:54;;;;;;;1999.90;999.90;;;;;;;;;;5037111;28;20402;-80
2022/10/15 09:54:25;;;;;;;1999.90;999.90;;;;;;;;;;5030861;28;20410;-80
2022/10/15 09:56:55;;;;;;;1999.90;999.90;;;;;;;;;;5041032;28;20402;-83
2022/10/15 09:59:24;;;;;;;1999.90;999.90;;;;;;;;;;5045249;28;20414;-85
2022/10/15 10:01:59;;;;;;;1999.90;999.90;;;;;;;;;;5057845;28;20417;-80
2022/10/15 10:04:28;;;;;;;1999.90;999.90;;;;;;;;;;5046759;28;20490;-83
2022/10/15 10:06:59;;;;;;;1999.90;999.90;;;;;;;;;;5038261;28;20658;-78
2022/10/15 10:09:30;;;;;;;1999.90;999.90;;;;;;;;;;5041036;28;20414;-76
2022/10/15 10:12:00;;;;;;;1999.90;999.90;;;;;;;;;;5039866;28;20474;-77
2022/10/15 10:14:29;;;;;;;1999.90;999.90;;;;;;;;;;5059901;28;21213;-75
2022/10/15 10:17:13;;;;;;;1999.90;999.90;;;;;;;;;;5055049;28;20410;-75
2022/10/15 10:19:41;;;;;;;1999.90;999.90;;;;;;;;;;5079041;28;20401;-76
2022/10/15 10:22:14;;;;;;;1999.90;999.90;;;;;;;;;;5077390;28;20416;-76
2022/10/15 10:24:42;;;;;;;1999.90;999.90;;;;;;;;;;5079354;28;20394;-76
2022/10/15 10:27:19;;;;;;;1999.90;999.90;;;;;;;;;;5060289;28;20446;-76
2022/10/15 10:29:54;;;;;;;1999.90;999.90;;;;;;;;;;5051748;28;20383;-76
2022/10/15 10:32:23;;;;;;;1999.90;999.90;;;;;;;;;;5052271;28;20371;-76
2022/10/15 10:34:51;;;;;;;1999.90;999.90;;;;;;;;;;5060929;28;20406;-76
2022/10/15 10:37:21;;;;;;;1999.90;999.90;;;;;;;;;;5073096;28;20417;-76
2022/10/15 10:39:52;;;;;;;1999.90;999.90;;;;;;;;;;5048036;28;20444;-78
2022/10/15 10:42:25;;;;;;;1999.90;999.90;;;;;;;;;;5050790;28;20402;-79
2022/10/15 10:44:54;;;;;;;1999.90;999.90;;;;;;;;;;5075283;28;20544;-77
2022/10/15 10:47:23;;;;;;;1999.90;999.90;;;;;;;;;;5063774;28;21080;-77
2022/10/15 10:49:56;;;;;;;1999.90;999.90;;;;;;;;;;5062801;28;20393;-76
2022/10/15 10:52:27;;;;;;;1999.90;999.90;;;;;;;;;;5084235;28;20428;-77
2022/10/15 10:55:00;;;;;;;1999.90;999.90;;;;;;;;;;5066703;28;20385;-77
2022/10/15 10:57:34;;;;;;;1999.90;999.90;;;;;;;;;;5088869;28;20451;-78
2022/10/15 11:00:03;;;;;;;1999.90;999.90;;;;;;;;;;5067467;28;20392;-79
2022/10/15 11:02:32;;;;;;;1999.90;999.90;;;;;;;;;;5063629;28;20918;-79
2022/10/15 11:05:00;;;;;;;1999.90;999.90;;;;;;;;;;5085291;28;20415;-78
2022/10/15 11:07:32;;;;;;;1999.90;999.90;;;;;;;;;;5064919;28;21235;-78
2022/10/15 11:10:02;;;;;;;1999.90;999.90;;;;;;;;;;5081620;28;20386;-77
2022/10/15 11:12:35;;;;;;;1999.90;999.90;;;;;;;;;;5066456;28;20404;-79
2022/10/15 11:15:08;;;;;;;1999.90;999.90;;;;;;;;;;5084347;28;20405;-78
2022/10/15 11:17:43;;;;;;;1999.90;999.90;;;;;;;;;;5089809;28;20942;-78
2022/10/15 11:20:18;;;;;;;1999.90;999.90;;;;;;;;;;5073851;28;20882;-78
2022/10/15 11:23:15;;;;;;;1999.90;999.90;;;;;;;;;;5066763;28;20401;-79
2022/10/15 11:25:46;;;;;;;1999.90;999.90;;;;;;;;;;5078552;28;20396;-76
2022/10/15 11:28:19;;;;;;;1999.90;999.90;;;;;;;;;;5077110;28;20389;-81
2022/10/15 11:30:50;;;;;;;1999.90;999.90;;;;;;;;;;5070182;28;20395;-80
2022/10/15 11:33:33;;;;;;;1999.90;999.90;;;;;;;;;;5072175;28;20391;-79
2022/10/15 11:36:15;;;;;;;1999.90;999.90;;;;;;;;;;5065717;28;20373;-79
2022/10/15 11:38:47;;;;;;;1999.90;999.90;;;;;;;;;;5070201;28;20409;-79
2022/10/15 11:41:23;;;;;;;1999.90;999.90;;;;;;;;;;5067364;28;20864;-79
2022/10/15 11:43:57;;;;;;;1999.90;999.90;;;;;;;;;;5041572;28;20822;-77
2022/10/15 11:46:28;;;;;;;1999.90;999.90;;;;;;;;;;5057129;28;20393;-78
2022/10/15 11:49:03;;;;;;;1999.90;999.90;;;;;;;;;;5076858;28;20414;-77
2022/10/15 11:51:33;;;;;;;1999.90;999.90;;;;;;;;;;5054947;28;20393;-78
2022/10/15 11:54:20;;;;;;;1999.90;999.90;;;;;;;;;;5052962;28;20409;-79
2022/10/15 11:56:49;;;;;;;1999.90;999.90;;;;;;;;;;5052594;28;20406;-79
2022/10/15 11:59:23;;;;;;;1999.90;999.90;;;;;;;;;;5055334;28;20409;-79
2022/10/15 12:01:54;;;;;;;1999.90;999.90;;;;;;;;;;5074886;28;20483;-79
2022/10/15 12:04:27;;;;;;;1999.90;999.90;;;;;;;;;;5065449;28;20445;-79
2022/10/15 12:07:02;;;;;;;1999.90;999.90;;;;;;;;;;5051447;28;20387;-78
2022/10/15 12:09:37;;;;;;;1999.90;999.90;;;;;;;;;;5071664;28;20420;-79
2022/10/15 12:12:07;;;;;;;1999.90;999.90;;;;;;;;;;5053335;28;20391;-78
2022/10/15 12:14:38;;;;;;;1999.90;999.90;;;;;;;;;;5053532;28;21276;-79
2022/10/15 12:17:11;;;;;;;1999.90;999.90;;;;;;;;;;5037918;28;20439;-79
2022/10/15 12:19:41;;;;;;;1999.90;999.90;;;;;;;;;;5074222;28;20916;-79
2022/10/15 12:22:11;;;;;;;1999.90;999.90;;;;;;;;;;5055426;28;21354;-79
2022/10/15 12:24:53;;;;;;;1999.90;999.90;;;;;;;;;;5056142;28;20354;-79
2022/10/15 12:27:27;;;;;;;1999.90;999.90;;;;;;;;;;5053159;28;20394;-77
2022/10/15 12:30:10;;;;;;;1999.90;999.90;;;;;;;;;;5055595;28;20419;-76
2022/10/15 12:32:39;;;;;;;1999.90;999.90;;;;;;;;;;5077738;28;20441;-79
2022/10/15 12:35:18;;;;;;;1999.90;999.90;;;;;;;;;;5055970;28;21245;-77
2022/10/15 12:37:49;;;;;;;1999.90;999.90;;;;;;;;;;5057118;28;21217;-80
2022/10/15 12:40:30;;;;;;;1999.90;999.90;;;;;;;;;;5053995;28;20457;-78
2022/10/15 12:43:00;;;;;;;1999.90;999.90;;;;;;;;;;5079598;28;20394;-77
2022/10/15 12:45:32;;;;;;;1999.90;999.90;;;;;;;;;;5066851;28;20480;-75
2022/10/15 12:48:17;;;;;;;1999.90;999.90;;;;;;;;;;5069886;28;20535;-79
2022/10/15 12:50:46;;;;;;;1999.90;999.90;;;;;;;;;;5075601;28;20387;-77
2022/10/15 12:53:31;;;;;;;1999.90;999.90;;;;;;;;;;5055531;28;20404;-77
2022/10/15 12:56:17;;;;;;;1999.90;999.90;;;;;;;;;;5056939;28;20467;-78
2022/10/15 12:58:47;;;;;;;1999.90;999.90;;;;;;;;;;5060319;28;20404;-78
2022/10/15 13:01:28;;;;;;;1999.90;999.90;;;;;;;;;;5070948;28;20469;-78
2022/10/15 13:04:00;;;;;;;1999.90;999.90;;;;;;;;;;5053666;28;21582;-78
2022/10/15 13:06:33;;;;;;;1999.90;999.90;;;;;;;;;;5051566;28;20442;-77
2022/10/15 13:09:06;;;;;;;1999.90;999.90;;;;;;;;;;5070938;28;21402;-77
2022/10/15 13:11:37;;;;;;;1999.90;999.90;;;;;;;;;;5073675;28;20228;-79
2022/10/15 13:14:14;;;;;;;1999.90;999.90;;;;;;;;;;5054922;28;20236;-80
2022/10/15 13:16:43;;;;;;;1999.90;999.90;;;;;;;;;;5052193;28;20492;-78
2022/10/15 13:19:17;;;;;;;1999.90;999.90;;;;;;;;;;5073999;28;20391;-79
2022/10/15 13:21:50;;;;;;;1999.90;999.90;;;;;;;;;;5035791;28;20374;-77
2022/10/15 13:24:41;;;;;;;1999.90;999.90;;;;;;;;;;5163838;27;20433;-79
2022/10/15 13:27:15;;;;;;;1999.90;999.90;;;;;;;;;;5135506;27;20417;-79
2022/10/15 13:29:53;;;;;;;1999.90;999.90;;;;;;;;;;5130729;27;20398;-82
2022/10/15 13:32:21;;;;;;;1999.90;999.90;;;;;;;;;;5140114;27;21160;-79
2022/10/15 13:34:50;;;;;;;1999.90;999.90;;;;;;;;;;5115304;27;20408;-80
2022/10/15 13:37:19;;;;;;;1999.90;999.90;;;;;;;;;;5132365;27;20389;-80
2022/10/15 13:39:51;;;;;;;1999.90;999.90;;;;;;;;;;5114114;27;20360;-78
2022/10/15 13:42:20;;;;;;;1999.90;999.90;;;;;;;;;;5157673;27;20364;-80
2022/10/15 13:44:56;;;;;;;1999.90;999.90;;;;;;;;;;5152332;27;20222;-78
2022/10/15 13:47:29;;;;;;;1999.90;999.90;;;;;;;;;;5140968;27;20233;-78
2022/10/15 13:50:13;;;;;;;1999.90;999.90;;;;;;;;;;5125543;27;20412;-80
2022/10/15 13:52:44;;;;;;;1999.90;999.90;;;;;;;;;;5149011;27;21029;-78
2022/10/15 13:55:17;;;;;;;1999.90;999.90;;;;;;;;;;5124008;27;20260;-79
2022/10/15 13:57:45;;;;;;;1999.90;999.90;;;;;;;;;;5124826;27;20245;-78
2022/10/15 14:00:20;;;;;;;1999.90;999.90;;;;;;;;;;5101180;27;20476;-79
2022/10/15 14:03:04;;;;;;;1999.90;999.90;;;;;;;;;;5118773;27;20391;-80
2022/10/15 14:05:31;;;;;;;1999.90;999.90;;;;;;;;;;5121750;27;20404;-81